This is the latest recevied weather packets stored in our database for station/object Seibranz. If no packets are shown the sender has not sent any weather packets the latest 10 day(s).
| Time | Temp. | Humidity | Pressure | Rain* | Wind** | Luminosity | Snow |
|---|---|---|---|---|---|---|---|
| 1777883533 | 16.67° C | 51% | 1012.9 hPa | 0 mm | - | - | - |
| 1777881731 | 16.67° C | 55% | 1013.3 hPa | 0 mm | - | - | - |
| 1777879930 | 15.56° C | 58% | 1013.3 hPa | 0 mm | - | - | - |
| 1777878132 | 13.89° C | 62% | 1013.5 hPa | 0 mm | - | - | - |
| 1777876331 | 14.44° C | 61% | 1013.3 hPa | 0 mm | - | - | - |
| 1777874532 | 13.89° C | 65% | 1013.4 hPa | 0 mm | - | - | - |
| 1777872731 | 12.78° C | 73% | 1013.4 hPa | 0 mm | - | - | - |
| 1777870930 | 7.78° C | 87% | 1013.4 hPa | 0 mm | - | - | - |
| 1777869131 | 6.11° C | 90% | 1013.2 hPa | 0 mm | - | - | - |
| 1777867331 | 5.56° C | 90% | 1013.3 hPa | 0 mm | - | - | - |
| 1777865531 | 5.56° C | 89% | 1013.6 hPa | 0 mm | - | - | - |
| 1777863732 | 7.22° C | 87% | 1013.7 hPa | 0 mm | - | - | - |
| 1777861931 | 7.78° C | 88% | 1013.7 hPa | 0 mm | - | - | - |
| 1777860132 | 8.33° C | 86% | 1013.7 hPa | 0 mm | - | - | - |
| 1777858331 | 8.89° C | 85% | 1013.8 hPa | 0 mm | - | - | - |
| 1777856531 | 8.89° C | 82% | 1013.9 hPa | 0 mm | - | - | - |
| 1777854730 | 8.33° C | 85% | 1014.1 hPa | 0 mm | - | - | - |
| 1777852928 | 7.78° C | 83% | 1014.2 hPa | 0 mm | - | - | - |
| 1777851129 | 8.89° C | 78% | 1014.4 hPa | 0 mm | - | - | - |
| 1777849329 | 10.56° C | 72% | 1014.5 hPa | 0 mm | - | - | - |
| 1777847530 | 10.56° C | 73% | 1014.4 hPa | 0 mm | - | - | - |
| 1777843930 | 11.11° C | 70% | 1014.1 hPa | 0 mm | - | - | - |
| 1777842131 | 10.56° C | 72% | 1013.9 hPa | 0 mm | - | - | - |
| 1777840329 | 12.22° C | 67% | 1013.5 hPa | 0 mm | - | - | - |
| 1777838531 | 13.33° C | 64% | 1013.2 hPa | 0 mm | - | - | - |
* Rain since midnight (hover to see other rain measurements)
** Current wind speed in m/s (hover to see current wind gust speed)